»·PEaware :: N172BK KTNP-KLGF

N172BK :: KTNP-KLGF

FLIGHT INFORMATION

Flight Status: Arrived
Operator: Privately registered:
United States
More flights under this callsign
Pilot: Jari J. (4222)
Aircraft: CESSNA 172 SKYHAWK
(C172)
More flights by this aircraft type
Origin: KTNP Twentynine Palms
United States
Destination: KLGF Laguna AAF
United States
More flights between these airports :: More routes between these airports
Route: TNP BLH V135 BZA DCT
File this flight plan on PilotEdge
Remarks:
Altitude:
(Current/Filed)
9,000ft
Speed:
(Current/Filed)
130kts
Departed: 17-Jun-16 04:10 AM
Arrived: 17-Jun-16 05:23 AM
Distance/Time
Traveled:
109nm/1:13
Distance/Time
To Go:
Arrived

Flight Plot

Page will automatically refresh every two minutes.


Map Options




Map Legend


Flown Route
Filed Route
Departure Airport
Arrival Airport
Navaid (VOR, NDB)
Fix

Horizontal Profiles

Position Reports

Time Latitude Longitude Heading Altitude Ground
Speed
17-Jun-16 03:54 34.135868 -115.941861 179 1890ft 0kts
17-Jun-16 03:55 34.135868 -115.941861 179 1890ft 0kts
17-Jun-16 03:56 34.135868 -115.941861 179 1890ft 0kts
17-Jun-16 03:57 34.135865 -115.941861 179 1890ft 0kts
17-Jun-16 03:58 34.135862 -115.941861 179 1890ft 0kts
17-Jun-16 03:59 34.135858 -115.941861 179 1890ft 0kts
17-Jun-16 04:00 34.135854 -115.941861 179 1890ft 0kts
17-Jun-16 04:01 34.135851 -115.941861 179 1890ft 0kts
17-Jun-16 04:02 34.135847 -115.941861 179 1890ft 0kts
17-Jun-16 04:03 34.135759 -115.941806 119 1890ft 3kts
17-Jun-16 04:04 34.135242 -115.938649 89 1890ft 27kts
17-Jun-16 04:05 34.134891 -115.935201 186 1890ft 0kts
17-Jun-16 04:06 34.134421 -115.935759 272 1890ft 0kts
17-Jun-16 04:07 34.134734 -115.949628 277 2159ft 72kts
17-Jun-16 04:08 34.147858 -115.945724 92 2926ft 83kts
17-Jun-16 04:09 34.135168 -115.921570 138 3440ft 92kts
17-Jun-16 04:10 34.125954 -115.891768 103 3862ft 99kts
17-Jun-16 04:11 34.122292 -115.857801 101 4256ft 104kts
17-Jun-16 04:12 34.118477 -115.822580 101 4642ft 105kts
17-Jun-16 04:13 34.114630 -115.787321 101 5037ft 105kts
17-Jun-16 04:14 34.105265 -115.755363 125 5444ft 100kts
17-Jun-16 04:15 34.090944 -115.726324 126 5848ft 100kts
17-Jun-16 04:16 34.076537 -115.697636 126 6244ft 99kts
17-Jun-16 04:17 34.062262 -115.669320 126 6642ft 98kts
17-Jun-16 04:18 34.048043 -115.641126 127 6992ft 100kts
17-Jun-16 04:19 34.033061 -115.611463 126 7209ft 105kts
17-Jun-16 04:20 34.020250 -115.586018 127 7382ft 107kts
17-Jun-16 04:21 34.002022 -115.549979 127 7613ft 107kts
17-Jun-16 04:22 33.988052 -115.524335 126 7771ft 112kts
17-Jun-16 04:23 33.971653 -115.492185 125 7973ft 114kts
17-Jun-16 04:24 33.955108 -115.459512 126 8168ft 113kts
17-Jun-16 04:25 33.938691 -115.427130 126 8365ft 112kts
17-Jun-16 04:26 33.922443 -115.395105 126 8561ft 111kts
17-Jun-16 04:27 33.906376 -115.363034 126 8762ft 111kts
17-Jun-16 04:28 33.890325 -115.331261 126 8955ft 110kts
17-Jun-16 04:29 33.873605 -115.298380 126 8978ft 118kts
17-Jun-16 04:30 33.856322 -115.264354 126 8964ft 116kts
17-Jun-16 04:31 33.839580 -115.231400 126 8965ft 114kts
17-Jun-16 04:32 33.823071 -115.198966 126 8964ft 113kts
17-Jun-16 04:33 33.806515 -115.166457 126 8959ft 113kts
17-Jun-16 04:34 33.790169 -115.134341 126 8958ft 111kts
17-Jun-16 04:35 33.773890 -115.102430 126 8959ft 111kts
17-Jun-16 04:36 33.757748 -115.070791 126 8957ft 110kts
17-Jun-16 04:37 33.741644 -115.039242 126 8955ft 110kts
17-Jun-16 04:38 33.725552 -115.007757 126 8952ft 110kts
17-Jun-16 04:39 33.709540 -114.976451 126 8950ft 110kts
17-Jun-16 04:40 33.693437 -114.945020 127 8949ft 110kts
17-Jun-16 04:41 33.677317 -114.913565 126 8947ft 110kts
17-Jun-16 04:42 33.661265 -114.882254 126 8945ft 110kts
17-Jun-16 04:43 33.644662 -114.851615 131 8944ft 108kts
17-Jun-16 04:44 33.627457 -114.821471 127 8942ft 109kts
17-Jun-16 04:45 33.611380 -114.790474 127 8943ft 109kts
17-Jun-16 04:46 33.594180 -114.760822 158 8941ft 103kts
17-Jun-16 04:47 33.565088 -114.755321 172 8736ft 114kts
17-Jun-16 04:48 33.532743 -114.748568 172 8341ft 119kts
17-Jun-16 04:49 33.499901 -114.742063 172 7939ft 119kts
17-Jun-16 04:50 33.466908 -114.735575 172 7533ft 119kts
17-Jun-16 04:51 33.434025 -114.729107 172 7125ft 119kts
17-Jun-16 04:52 33.402301 -114.722818 172 6938ft 108kts
17-Jun-16 04:53 33.373489 -114.717149 172 6938ft 102kts
17-Jun-16 04:54 33.345521 -114.711636 172 6945ft 101kts
17-Jun-16 04:55 33.317565 -114.706133 172 6943ft 102kts
17-Jun-16 04:56 33.286690 -114.700610 173 6536ft 119kts
17-Jun-16 04:57 33.253310 -114.694303 172 6039ft 121kts
17-Jun-16 04:58 33.218977 -114.687664 172 5547ft 132kts
17-Jun-16 04:59 33.185472 -114.681141 172 4987ft 111kts
17-Jun-16 05:00 33.155547 -114.675356 172 4510ft 109kts
17-Jun-16 05:01 33.124497 -114.669349 172 4038ft 112kts
17-Jun-16 05:02 33.094743 -114.663567 172 3487ft 103kts
17-Jun-16 05:03 33.066017 -114.659134 174 3022ft 104kts
17-Jun-16 05:04 33.039739 -114.654383 172 3014ft 97kts
17-Jun-16 05:05 33.010168 -114.649165 173 2988ft 107kts
17-Jun-16 05:06 32.986368 -114.637082 100 3008ft 101kts
17-Jun-16 05:07 32.996421 -114.603537 69 2994ft 101kts
17-Jun-16 05:08 33.007425 -114.572424 68 3008ft 103kts
17-Jun-16 05:09 33.018723 -114.540222 68 3019ft 106kts
17-Jun-16 05:10 33.030539 -114.506396 68 3025ft 114kts
17-Jun-16 05:11 33.042805 -114.471205 68 3009ft 108kts
17-Jun-16 05:12 33.048437 -114.439228 127 2784ft 94kts
17-Jun-16 05:13 33.025546 -114.427113 163 2500ft 90kts
17-Jun-16 05:14 32.999650 -114.416841 162 2236ft 103kts
17-Jun-16 05:15 32.973904 -114.405952 162 2090ft 88kts
17-Jun-16 05:16 32.947815 -114.399473 179 2036ft 104kts
17-Jun-16 05:17 32.919450 -114.395747 178 1259ft 95kts
17-Jun-16 05:18 32.895004 -114.394018 174 832ft 78kts
17-Jun-16 05:19 32.876735 -114.392621 181 478ft 57kts
17-Jun-16 05:20 32.866955 -114.394726 190 425ft 23kts
17-Jun-16 05:21 32.865026 -114.397331 6 425ft 0kts
17-Jun-16 05:22 32.865027 -114.397331 6 425ft 0kts
17-Jun-16 05:23 32.865028 -114.397331 6 425ft 0kts
17-Jun-16 05:24 32.865028 -114.397331 6 425ft 0kts
17-Jun-16 05:25 32.865028 -114.397331 6 425ft 0kts
17-Jun-16 05:26 32.865028 -114.397331 6 425ft 0kts
17-Jun-16 05:27 32.865028 -114.397331 6 425ft 0kts
17-Jun-16 05:28 32.865028 -114.397331 6 425ft 0kts
17-Jun-16 05:29 32.865028 -114.397331 6 425ft 0kts
17-Jun-16 05:30 32.865028 -114.397331 6 425ft 0kts
17-Jun-16 05:31 32.865028 -114.397331 6 425ft 0kts
17-Jun-16 05:32 32.865028 -114.397331 6 425ft 0kts
17-Jun-16 05:33 32.865028 -114.397331 6 425ft 0kts
17-Jun-16 05:34 32.865028 -114.397331 6 425ft 0kts

Navigation Log

Ident Type
Flight plan parsing failed, navigation log unavailable